Time;durP1;ratioP1;P1;durP2;ratioP2;P2;SDS_P1;SDS_P2;PMS_P1;PMS_P2;Temp;Humidity;BMP_temperature;BMP_pressure;BME280_temperature;BME280_humidity;BME280_pressure;Samples;Min_cycle;Max_cycle;Signal;HPM_P1;HPM_P2
2022/10/21 00:01:14;;;;;;;9.75;6.35;;;;;;;-140.72;100.00;52869.75;5022979;28;20414;-70
2022/10/21 00:03:40;;;;;;;8.75;7.05;;;;;;;-140.72;100.00;52849.47;5027112;28;20446;-70
2022/10/21 00:06:07;;;;;;;10.85;6.97;;;;;;;-140.72;100.00;52843.38;5021692;28;20029;-69
2022/10/21 00:08:32;;;;;;;10.88;6.03;;;;;;;-140.72;100.00;52869.75;5024294;28;20395;-70
2022/10/21 00:11:00;;;;;;;9.63;6.88;;;;;;;-140.72;100.00;52908.31;5023814;28;20128;-70
2022/10/21 00:13:31;;;;;;;8.10;6.03;;;;;;;-140.72;100.00;52853.53;5026666;28;20029;-71
2022/10/21 00:16:10;;;;;;;8.48;6.57;;;;;;;-140.72;100.00;52833.22;5022906;28;20109;-70
2022/10/21 00:18:37;;;;;;;10.57;7.28;;;;;;;-140.72;100.00;52875.84;5025524;28;20017;-70
2022/10/21 00:21:17;;;;;;;9.45;6.57;;;;;;;-140.72;100.00;52849.47;5024676;28;20046;-70
2022/10/21 00:23:43;;;;;;;11.07;7.00;;;;;;;-140.72;100.00;52849.47;5020463;28;20049;-70
2022/10/21 00:26:10;;;;;;;8.50;6.57;;;;;;;-140.72;100.00;52867.72;5023700;28;20094;-69
2022/10/21 00:28:35;;;;;;;8.38;6.13;;;;;;;-140.72;100.00;52861.66;5026120;28;20351;-69
2022/10/21 00:31:01;;;;;;;9.38;6.43;;;;;;;-140.72;100.00;52865.69;5021838;28;20029;-70
2022/10/21 00:33:27;;;;;;;8.57;6.13;;;;;;;-140.72;100.00;52865.69;5026867;28;20033;-70
2022/10/21 00:35:55;;;;;;;6.68;5.55;;;;;;;-140.72;100.00;52883.97;5026678;28;20021;-71
2022/10/21 00:38:20;;;;;;;9.27;5.65;;;;;;;-140.72;100.00;52867.72;5026689;28;20088;-70
2022/10/21 00:40:46;;;;;;;11.05;6.95;;;;;;;-140.72;100.00;52888.03;5024490;28;20025;-70
2022/10/21 00:43:11;;;;;;;9.48;6.47;;;;;;;-140.72;100.00;52873.81;5020905;28;20053;-69
2022/10/21 00:45:37;;;;;;;9.10;5.38;;;;;;;-140.72;100.00;52906.28;5021781;28;20033;-69
2022/10/21 00:48:07;;;;;;;9.15;5.90;;;;;;;-140.72;100.00;52865.69;5027603;28;20021;-70
2022/10/21 00:50:36;;;;;;;8.50;5.97;;;;;;;-140.72;100.00;52873.81;5021111;28;20017;-70
2022/10/21 00:53:05;;;;;;;8.43;6.40;;;;;;;-140.72;100.00;52890.06;5020280;28;20026;-69
2022/10/21 00:55:35;;;;;;;6.93;5.65;;;;;;;-140.72;100.00;52877.88;5019620;28;20021;-70
2022/10/21 00:58:02;;;;;;;8.82;5.35;;;;;;;-140.72;100.00;52898.16;5017785;28;20029;-70
2022/10/21 01:00:28;;;;;;;8.00;5.82;;;;;;;-140.72;100.00;52906.28;5021534;28;20032;-69
2022/10/21 01:02:53;;;;;;;7.13;4.80;;;;;;;-140.72;100.00;52936.72;5021890;28;20108;-69
2022/10/21 01:05:18;;;;;;;6.57;5.05;;;;;;;-140.72;100.00;52906.28;5023655;28;20053;-70
2022/10/21 01:07:49;;;;;;;9.15;5.90;;;;;;;-140.72;100.00;52920.50;5027289;28;20048;-70
2022/10/21 01:10:15;;;;;;;6.65;5.63;;;;;;;-140.72;100.00;52892.09;5015551;28;20584;-70
2022/10/21 01:13:10;;;;;;;10.15;5.22;;;;;;;-140.72;100.00;52886.00;5028065;28;20028;-71
2022/10/21 01:15:44;;;;;;;9.75;6.00;;;;;;;-140.72;100.00;52898.16;5026920;28;20032;-70
2022/10/21 01:18:31;;;;;;;7.47;6.28;;;;;;;-140.72;100.00;52916.44;5016456;28;20121;-71
2022/10/21 01:21:23;;;;;;;9.60;5.97;;;;;;;-140.72;100.00;52886.00;5027301;28;20052;-70
2022/10/21 01:24:06;;;;;;;8.25;5.68;;;;;;;-140.72;100.00;52892.09;5021087;28;20021;-69
2022/10/21 01:27:01;;;;;;;9.20;6.85;;;;;;;-140.72;100.00;52890.06;5018263;28;20417;-71
2022/10/21 01:29:52;;;;;;;8.68;6.57;;;;;;;-140.72;100.00;52898.16;4987451;28;20063;-69
2022/10/21 01:32:38;;;;;;;8.20;5.13;;;;;;;-140.72;100.00;52900.19;5021822;28;20026;-70
2022/10/21 01:35:24;;;;;;;9.27;5.82;;;;;;;-140.72;100.00;52867.72;5019873;28;20044;-71
2022/10/21 01:38:02;;;;;;;7.35;5.40;;;;;;;-140.72;100.00;52926.59;5023356;28;20116;-71
2022/10/21 01:40:34;;;;;;;9.35;6.05;;;;;;;-140.72;100.00;52920.50;5016928;28;20030;-70
2022/10/21 01:43:08;;;;;;;7.70;5.97;;;;;;;-140.72;100.00;52908.31;5012790;28;20025;-70
2022/10/21 01:45:58;;;;;;;6.43;5.55;;;;;;;-140.72;100.00;52890.06;5023214;28;20039;-70
2022/10/21 01:48:29;;;;;;;8.05;5.47;;;;;;;-140.72;100.00;52940.78;5014048;28;20025;-70
2022/10/21 01:51:01;;;;;;;9.50;5.93;;;;;;;-140.72;100.00;52942.81;5027093;28;20369;-71
2022/10/21 01:53:32;;;;;;;8.18;5.45;;;;;;;-140.72;100.00;52910.34;5010568;28;20076;-71
2022/10/21 01:55:59;;;;;;;8.57;5.05;;;;;;;-140.72;100.00;52928.63;5021842;28;20033;-70
2022/10/21 01:58:28;;;;;;;8.27;6.13;;;;;;;-140.72;100.00;52896.16;5013466;28;20034;-70
2022/10/21 02:00:57;;;;;;;7.53;5.38;;;;;;;-140.72;100.00;52952.97;5023733;28;20071;-70
2022/10/21 02:03:27;;;;;;;8.30;5.85;;;;;;;-140.72;100.00;52926.59;5030518;28;20026;-70
2022/10/21 02:05:53;;;;;;;9.57;5.22;;;;;;;-140.72;100.00;52886.00;5029420;28;20018;-70
2022/10/21 02:08:19;;;;;;;6.70;4.90;;;;;;;-140.72;100.00;52938.75;5024099;28;20029;-70
2022/10/21 02:10:49;;;;;;;7.55;5.07;;;;;;;-140.72;100.00;52896.16;5029707;28;20024;-70
2022/10/21 02:13:22;;;;;;;7.82;5.63;;;;;;;-140.72;100.00;52890.06;5030653;28;20038;-70
2022/10/21 02:15:52;;;;;;;7.85;5.22;;;;;;;-140.72;100.00;52944.84;5030695;28;20017;-71
2022/10/21 02:18:21;;;;;;;9.48;4.93;;;;;;;-140.72;100.00;52908.31;5017764;28;20030;-69
2022/10/21 02:20:55;;;;;;;7.15;5.38;;;;;;;-140.72;100.00;52922.53;5030803;28;20041;-70
2022/10/21 02:23:30;;;;;;;8.63;4.38;;;;;;;-140.72;100.00;52942.81;5026159;28;20026;-71
2022/10/21 02:25:55;;;;;;;6.70;4.85;;;;;;;-140.72;100.00;52955.00;5022453;28;20118;-71
2022/10/21 02:28:20;;;;;;;7.57;5.85;;;;;;;-140.72;100.00;52952.97;5031148;28;20017;-70
2022/10/21 02:30:52;;;;;;;10.93;4.50;;;;;;;-140.72;100.00;52914.41;5030631;28;20156;-71
2022/10/21 02:33:41;;;;;;;7.40;4.43;;;;;;;-140.72;100.00;52942.81;5023280;28;20037;-70
2022/10/21 02:36:21;;;;;;;6.45;4.97;;;;;;;-140.72;100.00;52922.53;5015441;28;20458;-71
2022/10/21 02:38:50;;;;;;;9.40;5.28;;;;;;;-140.72;100.00;52932.66;5023126;28;20025;-69
2022/10/21 02:41:21;;;;;;;5.90;4.55;;;;;;;-140.72;100.00;52930.66;5029957;28;20508;-70
2022/10/21 02:43:55;;;;;;;8.77;4.82;;;;;;;-140.72;100.00;52971.22;5020620;28;20445;-70
2022/10/21 02:46:20;;;;;;;7.75;5.18;;;;;;;-140.72;100.00;52952.97;5022144;28;20457;-70
2022/10/21 02:48:47;;;;;;;6.75;4.47;;;;;;;-140.72;100.00;52942.81;5029762;28;20025;-70
2022/10/21 02:51:13;;;;;;;6.93;4.85;;;;;;;-140.72;100.00;52922.53;5026689;28;20029;-70
2022/10/21 02:53:39;;;;;;;6.13;4.45;;;;;;;-140.72;100.00;52944.84;5025364;28;20029;-70
2022/10/21 02:56:05;;;;;;;6.00;4.78;;;;;;;-140.72;100.00;52914.41;5030356;28;20028;-70
2022/10/21 02:58:30;;;;;;;6.45;4.90;;;;;;;-140.72;100.00;52963.13;5030412;28;20025;-70
2022/10/21 03:00:56;;;;;;;5.43;4.28;;;;;;;-140.72;100.00;52940.78;5029330;28;20402;-70
2022/10/21 03:03:22;;;;;;;7.68;4.70;;;;;;;-140.72;100.00;52948.91;5013902;28;20037;-70
2022/10/21 03:05:47;;;;;;;7.32;4.28;;;;;;;-140.72;100.00;52950.94;5019390;28;20029;-70
2022/10/21 03:08:17;;;;;;;5.47;4.28;;;;;;;-140.72;100.00;52924.56;5029657;28;20064;-70
2022/10/21 03:10:42;;;;;;;7.18;4.90;;;;;;;-140.72;100.00;52918.47;5015907;28;20480;-70
2022/10/21 03:13:08;;;;;;;6.22;4.22;;;;;;;-140.72;100.00;52936.72;5021521;28;20112;-70
2022/10/21 03:15:33;;;;;;;7.78;4.60;;;;;;;-140.72;100.00;52938.75;5024730;28;20021;-70
2022/10/21 03:17:59;;;;;;;6.18;3.97;;;;;;;-140.72;100.00;52948.91;5020530;28;20034;-70
2022/10/21 03:20:24;;;;;;;6.18;4.20;;;;;;;-140.72;100.00;52973.25;5023259;28;20124;-70
2022/10/21 03:22:49;;;;;;;7.57;4.43;;;;;;;-140.72;100.00;52914.41;5010147;28;20042;-70
2022/10/21 03:25:15;;;;;;;5.53;4.30;;;;;;;-140.72;100.00;52918.47;5010708;28;20029;-70
2022/10/21 03:27:40;;;;;;;6.30;4.28;;;;;;;-140.72;100.00;52926.59;5019413;28;20032;-69
2022/10/21 03:30:07;;;;;;;7.63;4.00;;;;;;;-140.72;100.00;52948.91;5029729;28;20104;-70
2022/10/21 03:32:33;;;;;;;6.80;4.50;;;;;;;-140.72;100.00;52920.50;5029993;28;20029;-70
2022/10/21 03:34:58;;;;;;;5.75;4.03;;;;;;;-140.72;100.00;52906.28;5015973;28;20063;-70
2022/10/21 03:37:24;;;;;;;5.85;4.30;;;;;;;-140.72;100.00;52940.78;5029119;28;20071;-70
2022/10/21 03:39:49;;;;;;;11.95;4.10;;;;;;;-140.72;100.00;52957.03;5020525;28;20022;-70
2022/10/21 03:42:14;;;;;;;7.45;4.25;;;;;;;-140.72;100.00;52950.94;5015520;28;20068;-71
2022/10/21 03:44:40;;;;;;;5.40;3.83;;;;;;;-140.72;100.00;52930.66;5020339;28;20021;-70
2022/10/21 03:47:08;;;;;;;5.43;4.55;;;;;;;-140.72;100.00;52930.66;5026708;28;20029;-69
2022/10/21 03:49:34;;;;;;;5.43;4.30;;;;;;;-140.72;100.00;52950.94;5026497;28;20033;-70
2022/10/21 03:51:59;;;;;;;7.20;4.05;;;;;;;-140.72;100.00;52920.50;5025597;28;20018;-69
2022/10/21 03:54:25;;;;;;;6.53;4.13;;;;;;;-140.72;100.00;52948.91;5026007;28;20028;-71
2022/10/21 03:56:50;;;;;;;6.07;4.15;;;;;;;-140.72;100.00;52944.84;5025518;28;20044;-70
2022/10/21 03:59:16;;;;;;;4.43;3.33;;;;;;;-140.72;100.00;52912.38;5028468;28;20102;-70
2022/10/21 04:01:41;;;;;;;5.75;4.10;;;;;;;-140.72;100.00;52930.66;5025635;28;20393;-71
2022/10/21 04:04:07;;;;;;;8.25;5.18;;;;;;;-140.72;100.00;52950.94;5025464;28;20048;-70
2022/10/21 04:06:32;;;;;;;7.70;4.70;;;;;;;-140.72;100.00;52936.72;5024373;28;20155;-70
2022/10/21 04:08:57;;;;;;;6.15;4.35;;;;;;;-140.72;100.00;52934.69;5025752;28;20072;-71
2022/10/21 04:11:24;;;;;;;8.35;4.50;;;;;;;-140.72;100.00;52969.19;5028998;28;20163;-69
2022/10/21 04:13:50;;;;;;;7.53;4.60;;;;;;;-140.72;100.00;52944.84;5025317;28;20040;-70
2022/10/21 04:16:18;;;;;;;5.82;4.13;;;;;;;-140.72;100.00;52938.75;5028228;28;20382;-70
2022/10/21 04:18:43;;;;;;;4.90;3.55;;;;;;;-140.72;100.00;52959.06;5017276;28;20203;-70
2022/10/21 04:21:09;;;;;;;5.40;4.70;;;;;;;-140.72;100.00;52942.81;5026262;28;20116;-70
2022/10/21 04:23:35;;;;;;;6.75;4.03;;;;;;;-140.72;100.00;52902.22;5023065;28;20025;-70
2022/10/21 04:26:00;;;;;;;4.85;3.28;;;;;;;-140.72;100.00;52922.53;5027152;28;20116;-70
2022/10/21 04:28:26;;;;;;;5.03;4.03;;;;;;;-140.72;100.00;52934.69;5024544;28;20109;-70
2022/10/21 04:30:51;;;;;;;6.68;3.60;;;;;;;-140.72;100.00;52959.06;5018017;28;20025;-69
2022/10/21 04:33:17;;;;;;;6.35;4.13;;;;;;;-140.72;100.00;52932.66;5011321;28;20021;-69
2022/10/21 04:35:42;;;;;;;4.72;3.70;;;;;;;-140.72;100.00;52948.91;5015577;28;20018;-70
2022/10/21 04:38:07;;;;;;;5.75;4.30;;;;;;;-140.72;100.00;52900.19;5020420;28;20512;-69
2022/10/21 04:40:33;;;;;;;6.65;4.65;;;;;;;-140.72;100.00;52936.72;5022341;28;20496;-70
2022/10/21 04:42:58;;;;;;;6.90;4.85;;;;;;;-140.72;100.00;52892.09;5027481;28;20029;-70
2022/10/21 04:45:24;;;;;;;8.68;4.15;;;;;;;-140.72;100.00;52914.41;5028109;28;20025;-70
2022/10/21 04:47:49;;;;;;;8.10;4.78;;;;;;;-140.72;100.00;52898.16;5024684;28;20017;-70
2022/10/21 04:50:17;;;;;;;8.18;5.35;;;;;;;-140.72;100.00;52920.50;5024234;28;20036;-70
2022/10/21 04:52:43;;;;;;;11.05;5.10;;;;;;;-140.72;100.00;52904.25;5022410;28;20540;-70
2022/10/21 04:55:08;;;;;;;6.18;4.40;;;;;;;-140.72;100.00;52920.50;5020861;28;20155;-70
2022/10/21 04:57:34;;;;;;;5.75;4.15;;;;;;;-140.72;100.00;52934.69;5024720;28;20029;-70
2022/10/21 04:59:59;;;;;;;6.45;4.10;;;;;;;-140.72;100.00;52916.44;5023219;28;20442;-69
2022/10/21 05:02:25;;;;;;;6.25;4.22;;;;;;;-140.72;100.00;52924.56;5027006;28;20430;-70
2022/10/21 05:04:50;;;;;;;12.32;4.68;;;;;;;-140.72;100.00;52902.22;5022152;28;20067;-70
2022/10/21 05:07:15;;;;;;;6.93;4.68;;;;;;;-140.72;100.00;52910.34;5026305;28;20037;-70
2022/10/21 05:09:41;;;;;;;8.43;5.13;;;;;;;-140.72;100.00;52914.41;5024835;28;20017;-69
2022/10/21 05:12:06;;;;;;;8.15;4.85;;;;;;;-140.72;100.00;52898.16;5020449;28;20025;-70
2022/10/21 05:14:31;;;;;;;9.07;5.15;;;;;;;-140.72;100.00;52890.06;5024904;28;20484;-69
2022/10/21 05:16:57;;;;;;;6.18;4.50;;;;;;;-140.72;100.00;52904.25;5016513;28;20017;-70
2022/10/21 05:19:22;;;;;;;7.40;4.53;;;;;;;-140.72;100.00;52894.13;5024422;28;20021;-70
2022/10/21 05:21:47;;;;;;;12.55;6.72;;;;;;;-140.72;100.00;52926.59;5023404;28;20037;-70
2022/10/21 05:24:15;;;;;;;6.75;5.15;;;;;;;-140.72;100.00;52892.09;5025817;28;20606;-70
2022/10/21 05:26:41;;;;;;;7.30;4.53;;;;;;;-140.72;100.00;52914.41;5023385;28;20032;-70
2022/10/21 05:29:06;;;;;;;6.93;5.07;;;;;;;-140.72;100.00;52910.34;5021143;28;20377;-69
2022/10/21 05:31:32;;;;;;;8.57;5.00;;;;;;;-140.72;100.00;52934.69;5022880;28;20032;-70
2022/10/21 05:33:57;;;;;;;7.45;5.10;;;;;;;-140.72;100.00;52890.06;5027493;28;20041;-69
2022/10/21 05:36:23;;;;;;;10.55;5.55;;;;;;;-140.72;100.00;52914.41;5024929;28;20025;-69
2022/10/21 05:38:48;;;;;;;6.63;4.00;;;;;;;-140.72;100.00;52932.66;5028122;28;20146;-69
2022/10/21 05:41:15;;;;;;;7.25;4.28;;;;;;;-140.72;100.00;52920.50;5033093;28;20131;-69
2022/10/21 05:43:40;;;;;;;6.68;4.38;;;;;;;-140.72;100.00;52922.53;5026688;28;20457;-70
2022/10/21 05:46:07;;;;;;;8.15;4.68;;;;;;;-140.72;100.00;52930.66;5025425;28;20018;-69
2022/10/21 05:48:32;;;;;;;8.15;4.72;;;;;;;-140.72;100.00;52932.66;5026309;28;20050;-70
2022/10/21 05:50:58;;;;;;;7.65;4.07;;;;;;;-140.72;100.00;52900.19;5025952;28;20029;-70
2022/10/21 05:53:24;;;;;;;7.70;4.15;;;;;;;-140.72;100.00;52910.34;5030241;28;20079;-71
2022/10/21 05:56:04;;;;;;;6.82;4.18;;;;;;;-140.72;100.00;52894.13;5026652;28;20014;-71
2022/10/21 05:58:32;;;;;;;6.30;3.88;;;;;;;-140.72;100.00;52967.16;5026620;28;20026;-70
2022/10/21 06:00:58;;;;;;;5.68;3.67;;;;;;;-140.72;100.00;52892.09;5025143;28;20103;-70
2022/10/21 06:03:28;;;;;;;5.90;3.85;;;;;;;-140.72;100.00;52920.50;5030524;28;20018;-70
2022/10/21 06:05:54;;;;;;;6.90;4.18;;;;;;;-140.72;100.00;52918.47;5027641;28;20028;-69
2022/10/21 06:08:20;;;;;;;6.43;4.35;;;;;;;-140.72;100.00;52914.41;5027477;28;20021;-69
2022/10/21 06:10:45;;;;;;;8.90;5.03;;;;;;;-140.72;100.00;52944.84;5029514;28;20028;-70
2022/10/21 06:13:10;;;;;;;6.60;4.03;;;;;;;-140.72;100.00;52928.63;5027543;28;20096;-70
2022/10/21 06:15:36;;;;;;;8.55;4.15;;;;;;;-140.72;100.00;52918.47;5028037;28;20457;-70
2022/10/21 06:18:01;;;;;;;7.05;4.35;;;;;;;-140.72;100.00;52934.69;5025240;28;20525;-70
2022/10/21 06:20:27;;;;;;;7.00;3.80;;;;;;;-140.72;100.00;52920.50;5027912;28;20407;-70
2022/10/21 06:22:52;;;;;;;5.68;3.40;;;;;;;-140.72;100.00;52940.78;5027526;28;20362;-70
2022/10/21 06:25:17;;;;;;;10.48;4.60;;;;;;;-140.72;100.00;52916.44;5029129;28;20117;-70
2022/10/21 06:27:43;;;;;;;6.70;4.13;;;;;;;-140.72;100.00;52924.56;5029225;28;20455;-70
2022/10/21 06:30:09;;;;;;;4.82;3.53;;;;;;;-140.72;100.00;52930.66;5029730;28;20737;-69
2022/10/21 06:32:34;;;;;;;8.25;4.03;;;;;;;-140.72;100.00;52940.78;5028136;28;20393;-69
2022/10/21 06:35:00;;;;;;;6.88;3.58;;;;;;;-140.72;100.00;52950.94;5023136;28;20119;-70
2022/10/21 06:37:25;;;;;;;5.85;3.63;;;;;;;-140.72;100.00;52942.81;5024157;28;20450;-70
2022/10/21 06:39:50;;;;;;;4.57;3.15;;;;;;;-140.72;100.00;52936.72;5026658;28;20163;-70
2022/10/21 06:42:16;;;;;;;5.30;3.17;;;;;;;-140.72;100.00;52936.72;5030189;28;20029;-70
2022/10/21 06:44:41;;;;;;;4.70;3.08;;;;;;;-140.72;100.00;52930.66;5024680;28;20391;-70
2022/10/21 06:47:07;;;;;;;5.68;3.92;;;;;;;-140.72;100.00;52948.91;5029906;28;20037;-69
2022/10/21 06:49:33;;;;;;;3.33;2.83;;;;;;;-140.72;100.00;52930.66;5026246;28;20040;-69
2022/10/21 06:51:58;;;;;;;4.28;2.90;;;;;;;-140.72;100.00;52910.34;5026014;28;20384;-69
2022/10/21 06:54:23;;;;;;;4.13;2.90;;;;;;;-140.72;100.00;52922.53;5029415;28;20091;-69
2022/10/21 06:56:49;;;;;;;3.92;2.85;;;;;;;-140.72;100.00;52910.34;5029193;28;20145;-69
2022/10/21 06:59:14;;;;;;;5.15;3.88;;;;;;;-140.72;100.00;52898.16;5026957;28;20040;-69
2022/10/21 07:01:39;;;;;;;7.32;3.53;;;;;;;-140.72;100.00;52946.88;5030338;28;20025;-70
2022/10/21 07:04:05;;;;;;;4.90;3.03;;;;;;;-140.72;100.00;52950.94;5026774;28;20049;-69
2022/10/21 07:06:31;;;;;;;7.80;3.83;;;;;;;-140.72;100.00;52908.31;5019781;28;20029;-69
2022/10/21 07:08:56;;;;;;;4.65;2.70;;;;;;;-140.72;100.00;52955.00;5025616;28;20401;-70
2022/10/21 07:11:22;;;;;;;4.68;3.22;;;;;;;-140.72;100.00;52914.41;5021255;28;20033;-69
2022/10/21 07:13:47;;;;;;;5.30;3.70;;;;;;;-140.72;100.00;52920.50;5025151;28;20104;-69
2022/10/21 07:16:18;;;;;;;6.45;3.53;;;;;;;-140.72;100.00;52930.66;5021675;28;20021;-70
2022/10/21 07:18:44;;;;;;;3.22;2.55;;;;;;;-140.72;100.00;52918.47;5011556;28;20085;-69
2022/10/21 07:21:15;;;;;;;6.82;3.78;;;;;;;-140.72;100.00;52881.94;5010136;28;20514;-69
2022/10/21 07:23:40;;;;;;;7.20;3.53;;;;;;;-140.72;100.00;52910.34;5011132;28;20460;-69
2022/10/21 07:26:07;;;;;;;4.07;3.08;;;;;;;-140.72;100.00;52916.44;5019508;28;20028;-69
2022/10/21 07:28:34;;;;;;;7.53;3.90;;;;;;;-140.72;100.00;52906.28;5019569;28;20515;-69
2022/10/21 07:30:59;;;;;;;6.00;4.22;;;;;;;-140.72;100.00;52922.53;5027552;28;20025;-69
2022/10/21 07:33:25;;;;;;;4.68;3.30;;;;;;;-140.72;100.00;52946.88;5023860;28;20539;-69
2022/10/21 07:35:51;;;;;;;6.72;3.05;;;;;;;-140.72;100.00;52918.47;5019528;28;20010;-69
2022/10/21 07:38:17;;;;;;;5.47;3.38;;;;;;;-140.72;100.00;52934.69;5024206;28;20567;-69
2022/10/21 07:40:43;;;;;;;3.53;2.50;;;;;;;-140.72;100.00;52910.34;5024354;28;20040;-69
2022/10/21 07:43:10;;;;;;;4.50;3.08;;;;;;;-140.72;100.00;52924.56;5015361;28;20438;-69
2022/10/21 07:45:41;;;;;;;5.53;3.30;;;;;;;-140.72;100.00;52922.53;5016290;28;20101;-69
2022/10/21 07:48:08;;;;;;;4.10;2.83;;;;;;;-140.72;100.00;52914.41;5021540;28;20029;-69
2022/10/21 07:50:34;;;;;;;4.35;2.65;;;;;;;-140.72;100.00;52896.16;5009349;28;20345;-70
2022/10/21 07:53:01;;;;;;;7.22;3.60;;;;;;;-140.72;100.00;52932.66;5024720;28;20030;-70
2022/10/21 07:55:27;;;;;;;5.05;2.97;;;;;;;-140.72;100.00;52902.22;5034534;28;20029;-70
2022/10/21 07:57:52;;;;;;;4.05;2.83;;;;;;;-140.72;100.00;52906.28;5014925;28;20365;-69
2022/10/21 08:00:18;;;;;;;5.93;3.50;;;;;;;-140.72;100.00;52902.22;5026339;28;20025;-70
2022/10/21 08:02:43;;;;;;;4.65;3.13;;;;;;;-140.72;100.00;52863.66;5023768;28;20361;-70
2022/10/21 08:05:09;;;;;;;4.07;3.10;;;;;;;-140.72;100.00;52900.19;5027331;28;20025;-70
2022/10/21 08:07:34;;;;;;;8.65;3.78;;;;;;;-140.72;100.00;52926.59;5028082;28;20024;-71
2022/10/21 08:10:00;;;;;;;5.47;3.10;;;;;;;-140.72;100.00;52863.66;5027828;28;20025;-70
2022/10/21 08:12:25;;;;;;;4.28;3.15;;;;;;;-140.72;100.00;52912.38;5028057;28;20104;-70
2022/10/21 08:14:51;;;;;;;4.50;2.88;;;;;;;-140.72;100.00;52881.94;5025014;28;20017;-70
2022/10/21 08:17:19;;;;;;;6.10;3.35;;;;;;;-140.72;100.00;52912.38;5028038;28;20557;-70
2022/10/21 08:19:45;;;;;;;4.30;2.63;;;;;;;-140.72;100.00;52890.06;5028311;28;20092;-70
2022/10/21 08:22:11;;;;;;;4.07;2.72;;;;;;;-140.72;100.00;52883.97;5028160;28;20561;-70
2022/10/21 08:24:36;;;;;;;4.28;2.97;;;;;;;-140.72;100.00;52906.28;5025900;28;20668;-70
2022/10/21 08:27:06;;;;;;;4.25;2.85;;;;;;;-140.72;100.00;52914.41;5015087;28;20113;-71
2022/10/21 08:29:31;;;;;;;4.97;3.20;;;;;;;-140.72;100.00;52886.00;5027387;28;20045;-70
2022/10/21 08:31:56;;;;;;;4.13;3.05;;;;;;;-140.72;100.00;52892.09;5018738;28;20377;-70
2022/10/21 08:34:22;;;;;;;4.40;2.75;;;;;;;-140.72;100.00;52918.47;5024190;28;20022;-70
2022/10/21 08:36:48;;;;;;;3.63;2.70;;;;;;;-140.72;100.00;52873.81;5021692;28;20018;-70
2022/10/21 08:39:13;;;;;;;5.07;3.22;;;;;;;-140.72;100.00;52835.25;5024189;28;20128;-71
2022/10/21 08:42:07;;;;;;;4.25;3.03;;;;;;;-140.72;100.00;52896.16;5022054;28;20025;-70
2022/10/21 08:44:48;;;;;;;4.40;2.67;;;;;;;-140.72;100.00;52873.81;5027088;28;20133;-70
2022/10/21 08:47:19;;;;;;;4.50;2.63;;;;;;;-140.72;100.00;52859.63;5015954;28;20449;-69
2022/10/21 08:49:57;;;;;;;4.03;2.58;;;;;;;-140.72;100.00;52835.25;5017633;28;20121;-70
2022/10/21 08:52:50;;;;;;;3.88;2.58;;;;;;;-140.72;100.00;52902.22;5019826;28;20104;-70
2022/10/21 08:55:22;;;;;;;4.72;2.72;;;;;;;-140.72;100.00;52873.81;5025109;28;20029;-69
2022/10/21 08:57:49;;;;;;;5.35;2.92;;;;;;;-140.72;100.00;52837.28;5021706;28;20148;-69
2022/10/21 09:00:41;;;;;;;4.15;2.70;;;;;;;-140.72;100.00;52869.75;5023217;28;20029;-69
2022/10/21 09:03:53;;;;;;;6.10;3.13;;;;;;;-140.72;100.00;52829.19;5025757;28;20017;-70
2022/10/21 09:06:24;;;;;;;3.60;2.50;;;;;;;-140.72;100.00;52886.00;4999273;28;20033;-70
2022/10/21 09:08:55;;;;;;;4.57;3.40;;;;;;;-140.72;100.00;52863.66;5025362;28;20065;-69
2022/10/21 09:11:29;;;;;;;4.22;3.08;;;;;;;-140.72;100.00;52853.53;5030377;28;20033;-69
2022/10/21 09:14:37;;;;;;;4.93;3.28;;;;;;;-140.72;100.00;52814.97;5030076;28;21283;-68
2022/10/21 09:17:32;;;;;;;4.90;3.28;;;;;;;-140.72;100.00;52898.16;5015900;28;20546;-68
2022/10/21 09:20:22;;;;;;;6.20;2.70;;;;;;;-140.72;100.00;52843.38;5016343;28;20045;-69
2022/10/21 09:23:09;;;;;;;6.93;3.38;;;;;;;-140.72;100.00;52849.47;5023099;28;20064;-69
2022/10/21 09:25:59;;;;;;;4.43;3.10;;;;;;;-140.72;100.00;52825.13;5030336;28;20053;-68
2022/10/21 09:28:26;;;;;;;6.45;3.42;;;;;;;-140.72;100.00;52823.09;5027329;28;20049;-69
2022/10/21 09:30:53;;;;;;;9.50;2.95;;;;;;;-140.72;100.00;52831.19;5024867;28;20031;-69
2022/10/21 09:33:24;;;;;;;5.18;3.17;;;;;;;-140.72;100.00;52823.09;5029455;28;20026;-69
2022/10/21 09:36:17;;;;;;;5.20;3.17;;;;;;;-140.72;100.00;52825.13;5030428;28;20080;-69
2022/10/21 09:38:55;;;;;;;5.90;3.22;;;;;;;-140.72;100.00;52853.53;5014350;28;20393;-69
2022/10/21 09:41:23;;;;;;;5.75;2.85;;;;;;;-140.72;100.00;52837.28;5030081;28;20462;-69
2022/10/21 09:43:49;;;;;;;3.55;2.72;;;;;;;-140.72;100.00;52810.91;5027855;28;20293;-68
2022/10/21 09:46:16;;;;;;;4.60;3.08;;;;;;;-140.72;100.00;52833.22;5029819;28;20033;-68
2022/10/21 09:48:53;;;;;;;4.30;2.75;;;;;;;-140.72;100.00;52806.84;5015194;28;20087;-68
2022/10/21 09:51:23;;;;;;;4.00;2.63;;;;;;;-140.72;100.00;52804.81;5028404;28;20333;-69
2022/10/21 09:54:12;;;;;;;5.75;3.30;;;;;;;-140.72;100.00;52827.16;5026720;28;20273;-69
2022/10/21 09:56:57;;;;;;;4.93;2.63;;;;;;;-140.72;100.00;52780.47;5023732;28;20173;-69
2022/10/21 09:59:24;;;;;;;3.50;1.70;;;;;;;-140.72;100.00;52800.75;5026341;28;20036;-70
2022/10/21 10:01:50;;;;;;;4.30;2.20;;;;;;;-140.72;100.00;52800.75;5023694;28;20048;-69
2022/10/21 10:04:31;;;;;;;4.10;2.20;;;;;;;-140.72;100.00;52768.28;5024004;28;20026;-69
2022/10/21 10:07:00;;;;;;;4.28;2.05;;;;;;;-140.72;100.00;52796.72;5029690;28;20120;-69
2022/10/21 10:09:31;;;;;;;3.22;1.67;;;;;;;-140.72;100.00;52774.38;5027694;28;20029;-71
2022/10/21 10:12:01;;;;;;;3.08;1.48;;;;;;;-140.72;100.00;52750.03;5030091;28;20021;-70
2022/10/21 10:14:35;;;;;;;3.47;2.03;;;;;;;-140.72;100.00;52754.09;5023151;28;20084;-69
2022/10/21 10:17:30;;;;;;;2.30;1.55;;;;;;;-140.72;100.00;52752.06;5022193;28;20099;-69
2022/10/21 10:20:04;;;;;;;3.17;1.52;;;;;;;-140.72;100.00;52754.09;5028463;28;20048;-70
2022/10/21 10:22:30;;;;;;;9.88;2.03;;;;;;;-140.72;100.00;52745.97;5010719;28;20172;-69
2022/10/21 10:25:23;;;;;;;3.08;1.85;;;;;;;-140.72;100.00;52745.97;5023217;28;20064;-69
2022/10/21 10:28:00;;;;;;;3.80;1.55;;;;;;;-140.72;100.00;52766.25;5027045;28;20396;-69
2022/10/21 10:30:35;;;;;;;2.90;1.25;;;;;;;-140.72;100.00;52737.84;5018655;28;20022;-69
2022/10/21 10:33:25;;;;;;;4.70;1.95;;;;;;;-140.72;100.00;52729.75;5028104;28;20112;-69
2022/10/21 10:35:54;;;;;;;4.47;2.00;;;;;;;-140.72;100.00;52745.97;5025242;28;20029;-69
2022/10/21 10:38:32;;;;;;;3.72;1.80;;;;;;;-140.72;100.00;52733.78;5022252;28;20446;-70
2022/10/21 10:41:13;;;;;;;5.78;1.58;;;;;;;-140.72;100.00;52762.22;5019665;28;20472;-70
2022/10/21 10:43:45;;;;;;;3.17;1.40;;;;;;;-140.72;100.00;52727.72;5025205;28;20356;-69
2022/10/21 10:46:18;;;;;;;2.35;1.48;;;;;;;-140.72;100.00;52735.81;5023825;28;20041;-69
2022/10/21 10:48:49;;;;;;;2.30;1.17;;;;;;;-140.72;100.00;52719.59;5018477;28;20021;-70
2022/10/21 10:51:34;;;;;;;11.18;1.38;;;;;;;-140.72;100.00;52683.06;5042895;28;20048;-69
2022/10/21 10:54:05;;;;;;;1.60;1.10;;;;;;;-140.72;100.00;52620.16;5028691;28;20032;-70
2022/10/21 10:56:40;;;;;;;1.63;0.65;;;;;;;-140.72;100.00;52555.22;5016896;28;20477;-70
2022/10/21 10:59:27;;;;;;;5.38;1.20;;;;;;;-140.72;100.00;52589.72;5016570;28;20323;-68
2022/10/21 11:02:08;;;;;;;2.42;0.85;;;;;;;-140.72;100.00;52610.00;5030185;28;20399;-69
2022/10/21 11:04:55;;;;;;;2.55;1.10;;;;;;;-140.72;100.00;52614.06;5022090;28;20618;-69
2022/10/21 11:07:36;;;;;;;2.28;1.13;;;;;;;-140.72;100.00;52624.22;5028610;28;20032;-69
2022/10/21 11:10:06;;;;;;;3.38;1.23;;;;;;;-140.72;100.00;52668.84;5027358;28;20083;-68
2022/10/21 11:12:31;;;;;;;2.25;0.95;;;;;;;-140.72;100.00;52666.84;5025654;28;20057;-69
2022/10/21 11:14:58;;;;;;;1.50;1.05;;;;;;;-140.72;100.00;52699.31;5027759;28;20120;-69
2022/10/21 11:17:37;;;;;;;2.78;0.93;;;;;;;-140.72;100.00;52652.63;5019682;28;20214;-69
2022/10/21 11:20:14;;;;;;;1.38;0.75;;;;;;;-140.72;100.00;52610.00;5027992;28;20033;-69
2022/10/21 11:23:02;;;;;;;2.28;1.05;;;;;;;-140.72;100.00;52691.19;5021620;28;20069;-69